Time;durP1;ratioP1;P1;durP2;ratioP2;P2;SDS_P1;SDS_P2;PMS_P1;PMS_P2;Temp;Humidity;BMP_temperature;BMP_pressure;BME280_temperature;BME280_humidity;BME280_pressure;Samples;Min_cycle;Max_cycle;Signal;HPM_P1;HPM_P2
2021/09/22 00:01:08;;;;;;;13.45;11.90;;;;;;;14.41;59.66;95013.01;828141;71;29735;-77
2021/09/22 00:16:09;;;;;;;15.43;12.68;;;;;;;14.38;60.08;94997.01;828212;71;29799;-77
2021/09/22 00:31:36;;;;;;;15.30;13.10;;;;;;;14.37;60.46;94986.97;816158;72;33271;-77
2021/09/22 00:46:16;;;;;;;17.20;13.88;;;;;;;14.30;60.52;94970.77;827462;71;33280;-77
2021/09/22 01:01:09;;;;;;;14.93;12.63;;;;;;;14.15;60.52;94951.31;829413;71;29741;-80
2021/09/22 01:16:09;;;;;;;14.65;11.97;;;;;;;14.19;59.83;94943.03;833866;71;29305;-78
2021/09/22 01:31:15;;;;;;;13.75;11.12;;;;;;;14.12;59.57;94937.41;827397;71;33220;-77
2021/09/22 01:46:20;;;;;;;12.37;10.32;;;;;;;14.03;59.12;94922.84;827252;71;32732;-78
2021/09/22 02:01:16;;;;;;;11.45;9.85;;;;;;;13.93;58.02;94922.52;827203;71;32842;-80
2021/09/22 02:17:00;;;;;;;10.95;9.58;;;;;;;13.85;57.21;94913.19;805320;73;33083;-79
2021/09/22 02:31:09;;;;;;;10.88;9.33;;;;;;;13.73;56.67;94907.91;828245;71;29754;-78
2021/09/22 03:16:15;;;;;;;11.05;9.85;;;;;;;13.55;54.71;94901.70;828217;71;32814;-80
2021/09/22 03:31:09;;;;;;;12.20;10.60;;;;;;;13.52;55.05;94904.91;828196;71;30308;-78
2021/09/22 03:46:08;;;;;;;12.63;10.00;;;;;;;13.50;54.49;94891.24;834073;71;29513;-78
2021/09/22 04:01:59;;;;;;;10.50;9.45;;;;;;;13.46;54.78;94872.36;799102;71;32796;-78
2021/09/22 04:16:10;;;;;;;10.32;8.90;;;;;;;13.43;54.90;94885.06;829757;71;29896;-77
2021/09/22 04:46:10;;;;;;;9.20;8.25;;;;;;;13.53;54.53;94833.20;828167;71;30279;-76
2021/09/22 05:01:14;;;;;;;9.40;8.38;;;;;;;13.65;54.49;94836.09;827981;71;32300;-77
2021/09/22 05:16:14;;;;;;;10.10;9.00;;;;;;;13.71;55.65;94839.41;827794;71;33248;-78
2021/09/22 05:31:09;;;;;;;9.90;8.90;;;;;;;13.61;53.74;94833.27;829610;71;30280;-77
2021/09/22 05:46:27;;;;;;;9.55;8.55;;;;;;;13.61;52.76;94842.50;829260;71;32726;-77
2021/09/22 09:16:17;;;;;;;10.00;8.58;;;;;;;14.90;46.55;94784.70;793358;74;33534;-83
2021/09/22 14:46:08;;;;;;;4.30;4.00;;;;;;;14.94;55.90;94751.29;828016;71;29819;-79
2021/09/22 17:16:28;;;;;;;7.65;6.95;;;;;;;10.80;69.48;94706.14;827361;71;32769;-78
2021/09/22 18:01:15;;;;;;;7.00;6.35;;;;;;;11.77;66.47;94705.19;827159;71;33263;-81
2021/09/22 18:16:14;;;;;;;7.90;7.10;;;;;;;11.21;66.44;94703.73;828270;71;31438;-78
2021/09/22 18:31:15;;;;;;;8.65;7.78;;;;;;;10.86;67.32;94718.13;793090;74;32882;-78
2021/09/22 18:46:14;;;;;;;9.60;8.38;;;;;;;10.60;67.96;94727.66;827364;71;32643;-79
2021/09/22 19:31:34;;;;;;;10.20;9.20;;;;;;;11.26;68.74;94728.35;780690;75;33236;-77
2021/09/22 19:46:08;;;;;;;10.35;9.25;;;;;;;11.11;67.71;94717.01;828277;71;29785;-76
2021/09/22 20:01:11;;;;;;;10.28;9.10;;;;;;;11.01;67.86;94721.09;819422;71;31983;-78
2021/09/22 20:16:12;;;;;;;9.30;8.40;;;;;;;11.00;68.37;94721.60;819258;71;32059;-79
2021/09/22 20:31:11;;;;;;;12.65;10.00;;;;;;;10.99;68.66;94728.47;827868;71;31317;-78
2021/09/22 20:46:09;;;;;;;10.60;9.50;;;;;;;10.96;68.84;94727.17;829745;71;30375;-77
2021/09/22 21:16:09;;;;;;;10.32;9.28;;;;;;;10.91;68.70;94711.51;834084;71;30075;-79
2021/09/22 21:31:09;;;;;;;9.43;8.53;;;;;;;10.88;67.77;94707.35;828429;71;29725;-80
2021/09/22 21:46:09;;;;;;;11.63;9.93;;;;;;;10.79;67.41;94690.92;828673;71;29705;-80
2021/09/22 22:01:08;;;;;;;10.95;9.60;;;;;;;;;;830026;71;30301;-78
2021/09/22 22:16:12;;;;;;;10.63;9.53;;;;;;;;;;828296;71;31611;-76
2021/09/22 22:31:14;;;;;;;12.23;10.63;;;;;;;11.00;67.88;94678.82;833859;71;31761;-76
2021/09/22 22:46:09;;;;;;;12.37;10.40;;;;;;;11.04;68.01;94673.25;834006;71;29338;-77
2021/09/22 23:01:19;;;;;;;12.20;9.80;;;;;;;11.04;68.15;94673.25;827429;71;31766;-77
2021/09/22 23:16:11;;;;;;;12.68;9.78;;;;;;;11.07;68.06;94682.39;833994;71;28624;-76
2021/09/22 23:31:08;;;;;;;9.70;8.45;;;;;;;11.09;68.16;94678.44;828147;71;28655;-77
2021/09/22 23:46:14;;;;;;;9.30;8.30;;;;;;;11.05;68.16;94664.32;833844;71;32259;-80
